KPHL/PHL METAR and TAF weather

Enter ICAO airport designator
Station Type Date Time Source
KPHL METAR 2019/02/16 06:54 UTC NOAA

KPHL 160654Z 32011KT 10SM BKN100 OVC200 07/M08 A2978 RMK AO2 SLP082 T00721078 $


Station Type Date Time Source
KPHL Decoded METAR 2019/02/16 06:54 UTC NOAA

PHILADELPHIA INTERNATIONAL AIRPT, PA, United States (KPHL) 39-52N 075-14W 18M
Feb 16, 2019 - 01:54 AM EST / 2019.02.16 0654 UTC
Wind: from the NW (320 degrees) at 13 MPH (11 KT):0
Visibility: 10 mile(s):0
Sky conditions: overcast
Temperature: 45.0 F (7.2 C)
Dew Point: 18.0 F (-7.8 C)
Relative Humidity: 33%
Pressure (altimeter): 29.78 in. Hg (1008 hPa)
ob: KPHL 160654Z 32011KT 10SM BKN100 OVC200 07/M08 A2978 RMK AO2 SLP082 T00721078
cycle: 7

Station Type Date Time Source
KPHL TAF 2019/02/16 06:27 UTC NOAA

TAF KPHL 160520Z 1606/1712 31010KT P6SM FEW070 BKN150
FM161400 33008KT P6SM SCT250
FM170000 35005KT P6SM FEW250


Example: see airport list